createdAt,value
2023-03-02T00:00:38.655Z,100.00
2023-03-02T00:03:06.649Z,100.00
2023-03-02T00:05:34.622Z,100.00
2023-03-02T00:08:03.264Z,100.00
2023-03-02T00:10:30.687Z,100.00
2023-03-02T00:12:58.822Z,100.00
2023-03-02T00:15:25.495Z,100.00
2023-03-02T00:17:52.127Z,100.00
2023-03-02T00:20:18.824Z,100.00
2023-03-02T00:22:46.641Z,100.00
2023-03-02T00:25:15.666Z,100.00
2023-03-02T00:27:42.506Z,100.00
2023-03-02T00:30:11.989Z,100.00
2023-03-02T00:32:38.757Z,100.00
2023-03-02T00:35:06.036Z,100.00
2023-03-02T00:37:34.784Z,100.00
2023-03-02T00:40:01.348Z,100.00
2023-03-02T00:42:28.053Z,100.00
2023-03-02T00:44:54.746Z,100.00
2023-03-02T00:47:21.411Z,100.00
2023-03-02T00:49:49.499Z,100.00
2023-03-02T00:52:17.242Z,100.00
2023-03-02T00:54:46.636Z,100.00
2023-03-02T00:57:13.805Z,100.00
2023-03-02T00:59:40.945Z,100.00
2023-03-02T01:02:30.612Z,100.00
2023-03-02T01:04:57.640Z,100.00
2023-03-02T01:07:28.536Z,100.00
2023-03-02T01:09:55.333Z,100.00
2023-03-02T01:12:22.406Z,100.00
2023-03-02T01:14:50.864Z,100.00
2023-03-02T01:17:19.029Z,100.00
2023-03-02T01:19:45.737Z,100.00
2023-03-02T01:22:12.416Z,100.00
2023-03-02T01:24:39.034Z,100.00
2023-03-02T01:27:05.678Z,100.00
2023-03-02T01:29:32.277Z,100.00
2023-03-02T01:31:59.807Z,100.00
2023-03-02T01:34:26.767Z,100.00
2023-03-02T01:36:53.444Z,100.00
2023-03-02T01:39:22.484Z,100.00
2023-03-02T01:41:51.782Z,100.00
2023-03-02T01:44:36.781Z,100.00
2023-03-02T01:47:25.495Z,100.00
2023-03-02T01:50:24.810Z,100.00
2023-03-02T01:52:56.447Z,100.00
2023-03-02T01:55:27.377Z,100.00
2023-03-02T01:57:56.073Z,100.00
2023-03-02T02:00:33.369Z,100.00
2023-03-02T02:03:09.011Z,100.00
2023-03-02T02:05:42.955Z,100.00
2023-03-02T02:08:10.496Z,100.00
2023-03-02T02:10:39.741Z,100.00
2023-03-02T02:13:10.790Z,100.00
2023-03-02T02:15:40.316Z,100.00
2023-03-02T02:18:07.854Z,100.00
2023-03-02T02:20:45.265Z,100.00
2023-03-02T02:23:43.431Z,100.00
2023-03-02T02:26:25.772Z,100.00
2023-03-02T02:28:57.984Z,100.00
2023-03-02T02:31:45.720Z,100.00
2023-03-02T02:34:23.749Z,100.00
2023-03-02T02:36:56.521Z,100.00
2023-03-02T02:39:29.092Z,100.00
2023-03-02T02:42:00.466Z,100.00
2023-03-02T02:44:28.445Z,100.00
2023-03-02T02:46:55.058Z,100.00
2023-03-02T02:49:30.453Z,100.00
2023-03-02T02:51:58.515Z,100.00
2023-03-02T02:54:26.538Z,100.00
2023-03-02T02:56:54.460Z,100.00
2023-03-02T02:59:31.858Z,100.00
2023-03-02T03:02:00.231Z,100.00
2023-03-02T03:04:31.169Z,100.00
2023-03-02T03:07:03.692Z,100.00
2023-03-02T03:09:31.793Z,100.00
2023-03-02T03:12:04.328Z,100.00
2023-03-02T03:14:39.385Z,100.00
2023-03-02T03:17:16.144Z,100.00
2023-03-02T03:19:53.900Z,100.00
2023-03-02T03:22:20.598Z,100.00
2023-03-02T03:24:49.448Z,100.00
2023-03-02T03:27:18.397Z,100.00
2023-03-02T03:29:48.314Z,100.00
2023-03-02T03:32:19.576Z,100.00
2023-03-02T03:34:47.482Z,100.00
2023-03-02T03:37:40.861Z,100.00
2023-03-02T03:40:10.152Z,100.00
2023-03-02T03:42:39.858Z,100.00
2023-03-02T03:45:08.723Z,100.00
2023-03-02T03:47:36.056Z,100.00
2023-03-02T03:50:04.673Z,100.00
2023-03-02T03:52:31.660Z,100.00
2023-03-02T03:55:08.805Z,100.00
2023-03-02T03:57:35.519Z,100.00
2023-03-02T04:00:02.831Z,100.00
2023-03-02T04:02:41.289Z,100.00
2023-03-02T04:05:09.125Z,100.00
2023-03-02T04:07:38.140Z,100.00
2023-03-02T04:10:07.490Z,100.00
2023-03-02T04:12:38.731Z,100.00
2023-03-02T04:15:08.250Z,100.00
2023-03-02T04:17:35.471Z,100.00
2023-03-02T04:20:07.746Z,100.00
2023-03-02T04:22:35.321Z,100.00
2023-03-02T04:25:02.941Z,100.00
2023-03-02T04:27:30.284Z,100.00
2023-03-02T04:29:56.978Z,100.00
2023-03-02T04:32:23.662Z,100.00
2023-03-02T04:34:54.249Z,100.00
2023-03-02T04:37:21.424Z,100.00
2023-03-02T04:39:51.478Z,100.00
2023-03-02T04:42:19.730Z,100.00
2023-03-02T04:44:52.035Z,100.00
2023-03-02T04:47:18.680Z,100.00
2023-03-02T04:49:45.303Z,100.00
2023-03-02T04:52:11.858Z,100.00
2023-03-02T04:54:38.510Z,100.00
2023-03-02T04:57:05.132Z,100.00
2023-03-02T04:59:31.937Z,100.00
2023-03-02T05:02:00.913Z,100.00
2023-03-02T05:04:28.852Z,100.00
2023-03-02T05:06:55.915Z,100.00
2023-03-02T05:09:27.207Z,100.00
2023-03-02T05:12:00.232Z,100.00
2023-03-02T05:14:27.658Z,100.00
2023-03-02T05:16:54.318Z,100.00
2023-03-02T05:19:22.856Z,100.00
2023-03-02T05:21:49.517Z,100.00
2023-03-02T05:24:16.171Z,100.00
2023-03-02T05:26:42.745Z,100.00
2023-03-02T05:29:09.691Z,100.00
2023-03-02T05:31:39.404Z,100.00
2023-03-02T05:34:08.939Z,100.00
2023-03-02T05:36:36.200Z,100.00
2023-03-02T05:39:03.888Z,100.00
2023-03-02T05:41:31.047Z,100.00
2023-03-02T05:43:57.822Z,100.00
2023-03-02T05:46:24.680Z,100.00
2023-03-02T05:48:51.408Z,100.00
2023-03-02T05:51:18.180Z,100.00
2023-03-02T05:53:44.765Z,100.00
2023-03-02T05:56:11.386Z,100.00
2023-03-02T05:58:38.032Z,100.00
2023-03-02T06:01:10.124Z,100.00
2023-03-02T06:03:36.997Z,100.00
2023-03-02T06:06:03.826Z,100.00
2023-03-02T06:08:30.430Z,100.00
2023-03-02T06:10:57.674Z,100.00
2023-03-02T06:13:24.372Z,100.00
2023-03-02T06:15:51.034Z,100.00
2023-03-02T06:18:17.626Z,100.00
2023-03-02T06:20:44.338Z,100.00
2023-03-02T06:23:12.002Z,100.00
2023-03-02T06:25:41.258Z,100.00
2023-03-02T06:28:07.893Z,100.00
2023-03-02T06:30:34.749Z,100.00
2023-03-02T06:33:01.770Z,100.00
2023-03-02T06:35:29.084Z,100.00
2023-03-02T06:37:55.748Z,100.00
2023-03-02T06:40:22.341Z,100.00
2023-03-02T06:42:49.048Z,100.00
2023-03-02T06:45:15.732Z,100.00
2023-03-02T06:47:42.287Z,100.00
2023-03-02T06:50:11.824Z,100.00
2023-03-02T06:52:38.704Z,100.00
2023-03-02T06:55:07.140Z,100.00
2023-03-02T06:57:34.298Z,100.00
2023-03-02T07:00:02.630Z,100.00
2023-03-02T07:02:29.338Z,100.00
2023-03-02T07:04:55.939Z,100.00
2023-03-02T07:07:22.564Z,100.00
2023-03-02T07:09:49.118Z,100.00
2023-03-02T07:12:15.845Z,100.00
2023-03-02T07:14:42.465Z,100.00
2023-03-02T07:17:09.199Z,100.00
2023-03-02T07:19:35.970Z,100.00
2023-03-02T07:22:02.545Z,100.00
2023-03-02T07:24:29.146Z,100.00
2023-03-02T07:26:55.737Z,100.00
2023-03-02T07:29:22.337Z,100.00
2023-03-02T07:31:49.008Z,100.00
2023-03-02T07:34:16.304Z,100.00
2023-03-02T07:36:42.947Z,100.00
2023-03-02T07:39:09.608Z,100.00
2023-03-02T07:41:36.298Z,100.00
2023-03-02T07:44:02.952Z,100.00
2023-03-02T07:46:29.600Z,100.00
2023-03-02T07:48:56.286Z,100.00
2023-03-02T07:51:22.916Z,100.00
2023-03-02T07:53:49.471Z,100.00
2023-03-02T07:56:16.145Z,100.00
2023-03-02T07:58:42.933Z,100.00
2023-03-02T08:01:09.577Z,100.00
2023-03-02T08:03:36.951Z,100.00
2023-03-02T08:06:09.692Z,100.00
2023-03-02T08:08:37.146Z,100.00
2023-03-02T08:11:13.171Z,100.00
2023-03-02T08:13:40.209Z,100.00
2023-03-02T08:16:09.048Z,100.00
2023-03-02T08:18:36.623Z,100.00
2023-03-02T08:21:04.014Z,100.00
2023-03-02T08:23:30.600Z,100.00
2023-03-02T08:25:57.210Z,100.00
2023-03-02T08:28:23.900Z,100.00
2023-03-02T08:30:58.116Z,100.00
2023-03-02T08:33:25.980Z,100.00
2023-03-02T08:36:07.629Z,100.00
2023-03-02T08:38:34.969Z,100.00
2023-03-02T08:41:07.294Z,100.00
2023-03-02T08:43:34.130Z,100.00
2023-03-02T08:46:01.010Z,100.00
2023-03-02T08:48:28.733Z,100.00
2023-03-02T08:50:59.063Z,100.00
2023-03-02T08:53:26.928Z,100.00
2023-03-02T08:55:53.539Z,100.00
2023-03-02T08:58:20.540Z,100.00
2023-03-02T09:00:48.078Z,100.00
2023-03-02T09:03:15.222Z,100.00
2023-03-02T09:05:41.862Z,100.00
2023-03-02T09:08:08.926Z,100.00
2023-03-02T09:10:35.757Z,100.00
2023-03-02T09:13:02.826Z,100.00
2023-03-02T09:15:29.472Z,100.00
2023-03-02T09:17:56.290Z,100.00
2023-03-02T09:20:23.176Z,100.00
2023-03-02T09:22:50.848Z,100.00
2023-03-02T09:25:18.767Z,100.00
2023-03-02T09:27:46.836Z,100.00
2023-03-02T09:30:14.753Z,100.00
2023-03-02T09:32:41.902Z,100.00
2023-03-02T09:35:08.850Z,100.00
2023-03-02T09:37:38.647Z,100.00
2023-03-02T09:40:14.345Z,100.00
2023-03-02T09:43:14.654Z,100.00
2023-03-02T09:46:18.351Z,100.00
2023-03-02T09:48:56.462Z,100.00
2023-03-02T09:51:39.235Z,100.00
2023-03-02T09:54:14.237Z,100.00
2023-03-02T09:56:47.340Z,100.00
2023-03-02T09:59:20.136Z,100.00
2023-03-02T10:02:01.384Z,100.00
2023-03-02T10:04:33.385Z,100.00
2023-03-02T10:07:12.903Z,100.00
2023-03-02T10:09:40.866Z,100.00
2023-03-02T10:12:35.494Z,100.00
2023-03-02T10:15:25.996Z,100.00
2023-03-02T10:18:03.963Z,100.00
2023-03-02T10:20:37.984Z,100.00
2023-03-02T10:23:42.387Z,100.00
2023-03-02T10:26:14.963Z,100.00
2023-03-02T10:28:47.302Z,100.00
2023-03-02T10:31:25.875Z,100.00
2023-03-02T10:33:52.980Z,100.00
2023-03-02T10:36:27.824Z,100.00
2023-03-02T10:38:56.198Z,100.00
2023-03-02T10:41:33.134Z,100.00
2023-03-02T10:44:06.274Z,100.00
2023-03-02T10:46:44.346Z,100.00
2023-03-02T10:49:23.762Z,100.00
2023-03-02T10:51:56.471Z,100.00
2023-03-02T10:54:23.511Z,100.00
2023-03-02T10:56:52.738Z,100.00
2023-03-02T10:59:26.062Z,100.00
2023-03-02T11:02:01.564Z,100.00
2023-03-02T11:04:29.603Z,100.00
2023-03-02T11:07:06.801Z,100.00
2023-03-02T11:09:33.424Z,100.00
2023-03-02T11:12:01.038Z,100.00
2023-03-02T11:14:27.665Z,100.00
2023-03-02T11:16:54.747Z,100.00
2023-03-02T11:19:31.071Z,100.00
2023-03-02T11:22:21.025Z,100.00
2023-03-02T11:24:55.688Z,100.00
2023-03-02T11:27:28.045Z,100.00
2023-03-02T11:30:10.125Z,100.00
2023-03-02T11:32:58.286Z,100.00
2023-03-02T11:35:31.356Z,100.00
2023-03-02T11:38:23.441Z,100.00
2023-03-02T11:41:00.220Z,100.00
2023-03-02T11:43:27.061Z,100.00
2023-03-02T11:46:13.953Z,100.00
2023-03-02T11:48:48.925Z,100.00
2023-03-02T11:51:23.974Z,100.00
2023-03-02T11:54:03.671Z,100.00
2023-03-02T11:56:33.458Z,100.00
2023-03-02T11:59:07.440Z,100.00
2023-03-02T12:01:36.217Z,100.00
2023-03-02T12:04:24.916Z,100.00
2023-03-02T12:06:51.640Z,100.00
2023-03-02T12:09:24.262Z,100.00
2023-03-02T12:11:56.860Z,100.00
2023-03-02T12:14:28.557Z,100.00
2023-03-02T12:17:24.744Z,100.00
2023-03-02T12:20:23.458Z,98.89
2023-03-02T12:22:50.346Z,97.15
2023-03-02T12:25:20.019Z,94.97
2023-03-02T12:27:53.074Z,94.46
2023-03-02T12:30:26.257Z,94.85
2023-03-02T12:33:02.115Z,93.53
2023-03-02T12:35:31.716Z,92.03
2023-03-02T12:38:06.676Z,92.56
2023-03-02T12:40:58.783Z,93.34
2023-03-02T12:43:37.093Z,91.31
2023-03-02T12:46:28.081Z,89.67
2023-03-02T12:49:16.132Z,89.64
2023-03-02T12:51:45.728Z,88.63
2023-03-02T12:54:15.670Z,88.79
2023-03-02T12:56:42.580Z,88.24
2023-03-02T12:59:25.281Z,88.50
2023-03-02T13:01:52.334Z,87.20
2023-03-02T13:04:26.823Z,88.56
2023-03-02T13:06:54.059Z,85.46
2023-03-02T13:09:21.622Z,85.93
2023-03-02T13:11:49.831Z,85.91
2023-03-02T13:14:27.475Z,86.52
2023-03-02T13:17:04.265Z,87.65
2023-03-02T13:19:32.169Z,85.58
2023-03-02T13:21:59.776Z,85.50
2023-03-02T13:24:36.026Z,83.75
2023-03-02T13:27:14.541Z,84.62
2023-03-02T13:29:41.222Z,84.11
2023-03-02T13:32:41.505Z,84.74
2023-03-02T13:35:26.648Z,82.84
2023-03-02T13:38:04.834Z,84.25
2023-03-02T13:40:33.800Z,83.46
2023-03-02T13:43:00.540Z,80.86
2023-03-02T13:45:32.224Z,80.45
2023-03-02T13:48:11.920Z,80.53
2023-03-02T13:50:38.662Z,81.23
2023-03-02T13:53:07.091Z,80.17
2023-03-02T13:55:34.988Z,81.24
2023-03-02T13:58:02.448Z,81.22
2023-03-02T14:00:33.315Z,80.31
2023-03-02T14:03:00.623Z,81.68
2023-03-02T14:05:33.370Z,82.05
2023-03-02T14:08:00.979Z,82.15
2023-03-02T14:10:27.744Z,81.86
2023-03-02T14:13:05.359Z,81.90
2023-03-02T14:15:32.651Z,80.55
2023-03-02T14:18:00.527Z,80.41
2023-03-02T14:20:27.114Z,80.11
2023-03-02T14:22:53.742Z,79.92
2023-03-02T14:25:20.538Z,78.99
2023-03-02T14:27:47.563Z,78.82
2023-03-02T14:30:20.060Z,78.69
2023-03-02T14:32:47.284Z,79.05
2023-03-02T14:35:16.567Z,78.38
2023-03-02T14:37:49.369Z,78.42
2023-03-02T14:40:28.137Z,78.73
2023-03-02T14:42:54.893Z,78.00
2023-03-02T14:45:21.849Z,77.55
2023-03-02T14:47:48.922Z,77.95
2023-03-02T14:50:17.290Z,77.13
2023-03-02T14:52:51.497Z,76.51
2023-03-02T14:55:25.845Z,77.72
2023-03-02T14:58:13.228Z,77.40
2023-03-02T15:00:40.058Z,78.30
2023-03-02T15:03:06.670Z,78.35
2023-03-02T15:05:33.359Z,79.47
2023-03-02T15:07:59.997Z,79.03
2023-03-02T15:10:26.904Z,79.59
2023-03-02T15:12:53.560Z,78.71
2023-03-02T15:15:20.268Z,78.50
2023-03-02T15:17:46.904Z,79.21
2023-03-02T15:20:15.891Z,80.08
2023-03-02T15:22:42.791Z,81.27
2023-03-02T15:25:10.160Z,80.94
2023-03-02T15:27:36.838Z,80.82
2023-03-02T15:30:04.537Z,81.06
2023-03-02T15:32:31.286Z,81.65
2023-03-02T15:34:57.983Z,83.71
2023-03-02T15:37:24.715Z,84.42
2023-03-02T15:39:55.968Z,84.49
2023-03-02T15:42:23.260Z,85.47
2023-03-02T15:44:50.050Z,86.08
2023-03-02T15:47:17.031Z,86.58
2023-03-02T15:49:43.707Z,87.83
2023-03-02T15:52:10.784Z,87.75
2023-03-02T15:54:37.574Z,88.34
2023-03-02T15:57:04.729Z,88.18
2023-03-02T15:59:31.941Z,88.57
2023-03-02T16:01:59.616Z,89.00
2023-03-02T16:04:27.206Z,89.66
2023-03-02T16:06:54.969Z,89.25
2023-03-02T16:09:41.972Z,89.98
2023-03-02T16:12:08.596Z,90.41
2023-03-02T16:14:35.249Z,91.03
2023-03-02T16:17:02.076Z,91.43
2023-03-02T16:19:28.848Z,91.59
2023-03-02T16:21:55.521Z,91.69
2023-03-02T16:24:22.224Z,93.12
2023-03-02T16:26:50.888Z,93.62
2023-03-02T16:29:17.533Z,94.43
2023-03-02T16:31:48.085Z,94.43
2023-03-02T16:34:14.939Z,94.58
2023-03-02T16:36:41.894Z,96.18
2023-03-02T16:39:10.839Z,96.64
2023-03-02T16:41:39.984Z,97.62
2023-03-02T16:44:09.894Z,98.03
2023-03-02T16:46:39.983Z,98.03
2023-03-02T16:49:06.924Z,98.86
2023-03-02T16:51:33.801Z,100.00
2023-03-02T16:54:00.498Z,100.00
2023-03-02T16:56:27.153Z,100.00
2023-03-02T16:58:55.500Z,100.00
2023-03-02T17:01:22.890Z,100.00
2023-03-02T17:03:50.958Z,100.00
2023-03-02T17:06:22.405Z,100.00
2023-03-02T17:08:50.664Z,100.00
2023-03-02T17:11:17.610Z,100.00
2023-03-02T17:13:44.382Z,100.00
2023-03-02T17:16:11.636Z,100.00
2023-03-02T17:18:41.335Z,100.00
2023-03-02T17:21:08.613Z,100.00
2023-03-02T17:23:36.885Z,100.00
2023-03-02T17:26:03.823Z,100.00
2023-03-02T17:28:30.612Z,100.00
2023-03-02T17:30:57.418Z,100.00
2023-03-02T17:33:24.175Z,100.00
2023-03-02T17:35:51.506Z,100.00
2023-03-02T17:38:18.416Z,100.00
2023-03-02T17:40:45.112Z,100.00
2023-03-02T17:43:12.725Z,100.00
2023-03-02T17:45:39.757Z,100.00
2023-03-02T17:48:06.472Z,100.00
2023-03-02T17:50:33.277Z,100.00
2023-03-02T17:53:00.447Z,100.00
2023-03-02T17:55:30.361Z,100.00
2023-03-02T17:57:57.002Z,100.00
2023-03-02T18:00:24.172Z,100.00
2023-03-02T18:02:51.702Z,100.00
2023-03-02T18:05:18.999Z,100.00
2023-03-02T18:07:45.637Z,100.00
2023-03-02T18:10:12.796Z,100.00
2023-03-02T18:12:39.548Z,100.00
2023-03-02T18:15:06.977Z,100.00
2023-03-02T18:17:33.814Z,100.00
2023-03-02T18:20:00.498Z,100.00
2023-03-02T18:22:27.173Z,100.00
2023-03-02T18:24:53.912Z,100.00
2023-03-02T18:27:20.691Z,100.00
2023-03-02T18:29:47.407Z,100.00
2023-03-02T18:32:14.347Z,100.00
2023-03-02T18:34:41.138Z,100.00
2023-03-02T18:37:07.800Z,100.00
2023-03-02T18:39:35.254Z,100.00
2023-03-02T18:42:01.862Z,100.00
2023-03-02T18:44:31.107Z,100.00
2023-03-02T18:46:58.740Z,100.00
2023-03-02T18:49:25.566Z,100.00
2023-03-02T18:51:53.010Z,100.00
2023-03-02T18:54:19.681Z,100.00
2023-03-02T18:56:46.776Z,100.00
2023-03-02T18:59:13.976Z,100.00
2023-03-02T19:01:40.678Z,100.00
2023-03-02T19:04:07.326Z,100.00
2023-03-02T19:06:34.358Z,100.00
2023-03-02T19:09:01.238Z,100.00
2023-03-02T19:11:27.997Z,100.00
2023-03-02T19:13:54.912Z,100.00
2023-03-02T19:16:21.718Z,100.00
2023-03-02T19:18:48.796Z,100.00
2023-03-02T19:21:16.305Z,100.00
2023-03-02T19:23:44.545Z,100.00
2023-03-02T19:26:12.443Z,100.00
2023-03-02T19:28:42.200Z,100.00
2023-03-02T19:31:11.133Z,100.00
2023-03-02T19:33:38.582Z,100.00
2023-03-02T19:36:06.021Z,100.00
2023-03-02T19:38:33.053Z,100.00
2023-03-02T19:41:00.826Z,100.00
2023-03-02T19:43:28.154Z,100.00
2023-03-02T19:45:55.078Z,100.00
2023-03-02T19:48:21.853Z,100.00
2023-03-02T19:50:48.654Z,100.00
2023-03-02T19:53:36.218Z,100.00
2023-03-02T19:56:07.202Z,100.00
2023-03-02T19:58:35.412Z,100.00
2023-03-02T20:01:04.030Z,100.00
2023-03-02T20:03:30.954Z,100.00
2023-03-02T20:05:58.928Z,100.00
2023-03-02T20:08:25.585Z,100.00
2023-03-02T20:10:52.283Z,100.00
2023-03-02T20:13:19.068Z,100.00
2023-03-02T20:15:47.792Z,100.00
2023-03-02T20:18:17.331Z,100.00
2023-03-02T20:20:45.282Z,100.00
2023-03-02T20:23:13.738Z,100.00
2023-03-02T20:25:41.328Z,100.00
2023-03-02T20:28:11.812Z,100.00
2023-03-02T20:30:51.576Z,100.00
2023-03-02T20:33:20.445Z,100.00
2023-03-02T20:35:47.858Z,100.00
2023-03-02T20:38:23.830Z,100.00
2023-03-02T20:40:50.796Z,100.00
2023-03-02T20:43:17.601Z,100.00
2023-03-02T20:45:44.877Z,100.00
2023-03-02T20:48:11.886Z,100.00
2023-03-02T20:50:39.516Z,100.00
2023-03-02T20:53:07.962Z,100.00
2023-03-02T20:55:35.468Z,100.00
2023-03-02T20:58:05.360Z,100.00
2023-03-02T21:00:35.268Z,100.00
2023-03-02T21:03:02.394Z,100.00
2023-03-02T21:05:30.937Z,100.00
2023-03-02T21:07:58.340Z,100.00
2023-03-02T21:10:32.360Z,100.00
2023-03-02T21:12:59.621Z,100.00
2023-03-02T21:15:27.220Z,100.00
2023-03-02T21:17:55.484Z,100.00
2023-03-02T21:20:25.183Z,100.00
2023-03-02T21:22:51.930Z,100.00
2023-03-02T21:25:19.101Z,100.00
2023-03-02T21:27:46.145Z,100.00
2023-03-02T21:30:17.823Z,100.00
2023-03-02T21:32:45.595Z,100.00
2023-03-02T21:35:14.941Z,100.00
2023-03-02T21:37:43.248Z,100.00
2023-03-02T21:40:15.672Z,100.00
2023-03-02T21:42:42.488Z,100.00
2023-03-02T21:45:10.586Z,100.00
2023-03-02T21:47:39.511Z,100.00
2023-03-02T21:50:06.781Z,100.00
2023-03-02T21:52:33.493Z,100.00
2023-03-02T21:55:00.174Z,100.00
2023-03-02T21:57:26.830Z,100.00
2023-03-02T21:59:54.751Z,100.00
2023-03-02T22:02:21.408Z,100.00
2023-03-02T22:04:48.027Z,100.00
2023-03-02T22:07:14.779Z,100.00
2023-03-02T22:09:41.481Z,100.00
2023-03-02T22:12:13.451Z,100.00
2023-03-02T22:14:40.124Z,100.00
2023-03-02T22:17:17.824Z,100.00
2023-03-02T22:19:45.979Z,100.00
2023-03-02T22:22:18.860Z,100.00
2023-03-02T22:24:49.329Z,100.00
2023-03-02T22:27:23.918Z,100.00
2023-03-02T22:29:53.379Z,100.00
2023-03-02T22:32:37.233Z,100.00
2023-03-02T22:35:27.317Z,100.00
2023-03-02T22:38:07.299Z,100.00
2023-03-02T22:40:36.133Z,100.00
2023-03-02T22:43:15.904Z,100.00
2023-03-02T22:45:42.856Z,100.00
2023-03-02T22:48:19.331Z,100.00
2023-03-02T22:50:48.231Z,100.00
2023-03-02T22:53:32.794Z,100.00
2023-03-02T22:56:02.007Z,100.00
2023-03-02T22:58:43.989Z,100.00
2023-03-02T23:01:21.109Z,100.00
2023-03-02T23:04:08.117Z,100.00
2023-03-02T23:06:45.286Z,100.00
2023-03-02T23:09:16.348Z,100.00
2023-03-02T23:11:43.853Z,100.00
2023-03-02T23:14:21.179Z,100.00
2023-03-02T23:17:00.302Z,100.00
2023-03-02T23:19:31.593Z,100.00
2023-03-02T23:21:58.417Z,100.00
2023-03-02T23:24:25.409Z,100.00
2023-03-02T23:26:52.933Z,100.00
2023-03-02T23:29:23.062Z,100.00
2023-03-02T23:31:50.174Z,100.00
2023-03-02T23:34:16.978Z,100.00
2023-03-02T23:36:43.743Z,100.00
2023-03-02T23:39:10.836Z,100.00
2023-03-02T23:41:38.764Z,100.00
2023-03-02T23:44:07.031Z,100.00
2023-03-02T23:46:34.404Z,100.00
2023-03-02T23:49:01.230Z,100.00
2023-03-02T23:51:28.048Z,100.00
2023-03-02T23:53:56.106Z,100.00
2023-03-02T23:56:23.345Z,100.00
2023-03-02T23:58:50.415Z,100.00
